sensor_id;sensor_type;location;lat;lon;timestamp;P1;durP1;ratioP1;P2;durP2;ratioP2
73599;SDS011;61877;48.246;9.220;2022-08-21T00:01:07;19.33;;;2.90;;
73599;SDS011;61877;48.246;9.220;2022-08-21T00:03:39;15.25;;;3.00;;
73599;SDS011;61877;48.246;9.220;2022-08-21T00:06:05;14.88;;;3.17;;
73599;SDS011;61877;48.246;9.220;2022-08-21T00:08:30;16.70;;;2.83;;
73599;SDS011;61877;48.246;9.220;2022-08-21T00:10:55;28.40;;;3.67;;
73599;SDS011;61877;48.246;9.220;2022-08-21T00:13:21;29.77;;;3.47;;
73599;SDS011;61877;48.246;9.220;2022-08-21T00:15:47;31.83;;;3.27;;
73599;SDS011;61877;48.246;9.220;2022-08-21T00:18:14;16.52;;;2.63;;
73599;SDS011;61877;48.246;9.220;2022-08-21T00:20:41;14.88;;;2.97;;
73599;SDS011;61877;48.246;9.220;2022-08-21T00:23:08;23.42;;;2.78;;
73599;SDS011;61877;48.246;9.220;2022-08-21T00:25:33;14.37;;;2.50;;
73599;SDS011;61877;48.246;9.220;2022-08-21T00:27:59;21.70;;;2.38;;
73599;SDS011;61877;48.246;9.220;2022-08-21T00:30:25;14.33;;;2.60;;
73599;SDS011;61877;48.246;9.220;2022-08-21T00:32:52;17.80;;;2.72;;
73599;SDS011;61877;48.246;9.220;2022-08-21T00:35:21;17.55;;;2.70;;
73599;SDS011;61877;48.246;9.220;2022-08-21T00:37:50;9.40;;;2.40;;
73599;SDS011;61877;48.246;9.220;2022-08-21T00:40:18;12.07;;;2.58;;
73599;SDS011;61877;48.246;9.220;2022-08-21T00:42:47;7.70;;;2.67;;
73599;SDS011;61877;48.246;9.220;2022-08-21T00:45:12;9.82;;;2.60;;
73599;SDS011;61877;48.246;9.220;2022-08-21T00:47:38;10.90;;;2.90;;
73599;SDS011;61877;48.246;9.220;2022-08-21T00:50:04;18.53;;;2.73;;
73599;SDS011;61877;48.246;9.220;2022-08-21T00:52:32;21.17;;;2.72;;
73599;SDS011;61877;48.246;9.220;2022-08-21T00:55:02;16.05;;;2.35;;
73599;SDS011;61877;48.246;9.220;2022-08-21T00:57:32;14.05;;;2.40;;
73599;SDS011;61877;48.246;9.220;2022-08-21T01:00:04;20.77;;;2.40;;
73599;SDS011;61877;48.246;9.220;2022-08-21T01:02:32;15.33;;;2.40;;
73599;SDS011;61877;48.246;9.220;2022-08-21T01:04:58;13.98;;;2.60;;
73599;SDS011;61877;48.246;9.220;2022-08-21T01:07:23;16.10;;;2.43;;
73599;SDS011;61877;48.246;9.220;2022-08-21T01:09:49;8.13;;;2.40;;
73599;SDS011;61877;48.246;9.220;2022-08-21T01:12:16;8.77;;;2.63;;
73599;SDS011;61877;48.246;9.220;2022-08-21T01:14:41;10.93;;;2.60;;
73599;SDS011;61877;48.246;9.220;2022-08-21T01:17:08;14.20;;;2.78;;
73599;SDS011;61877;48.246;9.220;2022-08-21T01:19:35;9.57;;;2.50;;
73599;SDS011;61877;48.246;9.220;2022-08-21T01:22:02;19.08;;;2.97;;
73599;SDS011;61877;48.246;9.220;2022-08-21T01:24:28;14.43;;;2.50;;
73599;SDS011;61877;48.246;9.220;2022-08-21T01:26:53;9.87;;;2.33;;
73599;SDS011;61877;48.246;9.220;2022-08-21T01:29:22;10.80;;;2.30;;
73599;SDS011;61877;48.246;9.220;2022-08-21T01:31:54;19.13;;;2.47;;
73599;SDS011;61877;48.246;9.220;2022-08-21T01:34:19;14.00;;;1.92;;
73599;SDS011;61877;48.246;9.220;2022-08-21T01:36:45;23.93;;;2.40;;
73599;SDS011;61877;48.246;9.220;2022-08-21T01:39:12;40.85;;;3.08;;
73599;SDS011;61877;48.246;9.220;2022-08-21T01:41:38;60.08;;;3.20;;
73599;SDS011;61877;48.246;9.220;2022-08-21T01:44:04;24.00;;;2.30;;
73599;SDS011;61877;48.246;9.220;2022-08-21T01:46:30;45.33;;;2.67;;
73599;SDS011;61877;48.246;9.220;2022-08-21T01:48:55;20.03;;;2.30;;
73599;SDS011;61877;48.246;9.220;2022-08-21T01:51:21;53.35;;;3.20;;
73599;SDS011;61877;48.246;9.220;2022-08-21T01:53:47;46.30;;;3.40;;
73599;SDS011;61877;48.246;9.220;2022-08-21T01:56:14;24.88;;;2.40;;
73599;SDS011;61877;48.246;9.220;2022-08-21T01:58:42;10.50;;;2.33;;
73599;SDS011;61877;48.246;9.220;2022-08-21T02:01:09;23.03;;;2.77;;
73599;SDS011;61877;48.246;9.220;2022-08-21T02:03:35;12.60;;;2.30;;
73599;SDS011;61877;48.246;9.220;2022-08-21T02:06:02;23.02;;;2.30;;
73599;SDS011;61877;48.246;9.220;2022-08-21T02:08:27;11.80;;;2.07;;
73599;SDS011;61877;48.246;9.220;2022-08-21T02:10:53;20.92;;;2.67;;
73599;SDS011;61877;48.246;9.220;2022-08-21T02:13:20;9.82;;;2.35;;
73599;SDS011;61877;48.246;9.220;2022-08-21T02:15:46;16.57;;;2.70;;
73599;SDS011;61877;48.246;9.220;2022-08-21T02:18:11;18.92;;;2.90;;
73599;SDS011;61877;48.246;9.220;2022-08-21T02:20:37;27.47;;;2.50;;
73599;SDS011;61877;48.246;9.220;2022-08-21T02:23:05;20.95;;;2.80;;
73599;SDS011;61877;48.246;9.220;2022-08-21T02:25:31;56.45;;;3.63;;
73599;SDS011;61877;48.246;9.220;2022-08-21T02:27:58;9.97;;;2.40;;
73599;SDS011;61877;48.246;9.220;2022-08-21T02:30:30;22.67;;;3.00;;
73599;SDS011;61877;48.246;9.220;2022-08-21T02:32:56;23.60;;;2.95;;
73599;SDS011;61877;48.246;9.220;2022-08-21T02:35:22;11.43;;;2.53;;
73599;SDS011;61877;48.246;9.220;2022-08-21T02:37:49;17.50;;;2.40;;
73599;SDS011;61877;48.246;9.220;2022-08-21T02:40:16;8.70;;;2.10;;
73599;SDS011;61877;48.246;9.220;2022-08-21T02:42:43;28.05;;;3.10;;
73599;SDS011;61877;48.246;9.220;2022-08-21T02:45:09;24.53;;;2.73;;
73599;SDS011;61877;48.246;9.220;2022-08-21T02:47:36;43.63;;;3.33;;
73599;SDS011;61877;48.246;9.220;2022-08-21T02:50:02;38.95;;;3.03;;
73599;SDS011;61877;48.246;9.220;2022-08-21T02:52:29;31.90;;;3.05;;
73599;SDS011;61877;48.246;9.220;2022-08-21T02:54:54;41.33;;;3.20;;
73599;SDS011;61877;48.246;9.220;2022-08-21T02:57:19;22.13;;;2.53;;
73599;SDS011;61877;48.246;9.220;2022-08-21T02:59:45;25.65;;;3.00;;
73599;SDS011;61877;48.246;9.220;2022-08-21T03:02:10;7.17;;;2.30;;
73599;SDS011;61877;48.246;9.220;2022-08-21T03:04:37;9.50;;;2.60;;
73599;SDS011;61877;48.246;9.220;2022-08-21T03:07:02;20.77;;;2.70;;
73599;SDS011;61877;48.246;9.220;2022-08-21T03:09:28;38.53;;;3.13;;
73599;SDS011;61877;48.246;9.220;2022-08-21T03:11:54;23.00;;;2.93;;
73599;SDS011;61877;48.246;9.220;2022-08-21T03:14:19;24.90;;;2.93;;
73599;SDS011;61877;48.246;9.220;2022-08-21T03:16:44;18.17;;;2.60;;
73599;SDS011;61877;48.246;9.220;2022-08-21T03:19:10;27.03;;;3.00;;
73599;SDS011;61877;48.246;9.220;2022-08-21T03:21:37;20.80;;;2.83;;
73599;SDS011;61877;48.246;9.220;2022-08-21T03:24:02;18.70;;;2.83;;
73599;SDS011;61877;48.246;9.220;2022-08-21T03:26:28;8.07;;;2.70;;
73599;SDS011;61877;48.246;9.220;2022-08-21T03:28:53;13.32;;;2.70;;
73599;SDS011;61877;48.246;9.220;2022-08-21T03:31:19;15.70;;;2.70;;
73599;SDS011;61877;48.246;9.220;2022-08-21T03:33:44;11.03;;;2.67;;
73599;SDS011;61877;48.246;9.220;2022-08-21T03:36:11;15.63;;;2.80;;
73599;SDS011;61877;48.246;9.220;2022-08-21T03:38:38;22.92;;;2.97;;
73599;SDS011;61877;48.246;9.220;2022-08-21T03:41:05;7.00;;;2.65;;
73599;SDS011;61877;48.246;9.220;2022-08-21T03:43:31;22.83;;;3.22;;
73599;SDS011;61877;48.246;9.220;2022-08-21T03:45:57;17.48;;;2.90;;
73599;SDS011;61877;48.246;9.220;2022-08-21T03:48:23;9.23;;;2.50;;
73599;SDS011;61877;48.246;9.220;2022-08-21T03:50:48;12.17;;;2.83;;
73599;SDS011;61877;48.246;9.220;2022-08-21T03:53:17;11.40;;;2.00;;
73599;SDS011;61877;48.246;9.220;2022-08-21T03:55:44;26.27;;;2.10;;
73599;SDS011;61877;48.246;9.220;2022-08-21T03:58:10;23.23;;;2.00;;
73599;SDS011;61877;48.246;9.220;2022-08-21T04:00:36;14.43;;;1.77;;
73599;SDS011;61877;48.246;9.220;2022-08-21T04:03:01;6.07;;;1.67;;
73599;SDS011;61877;48.246;9.220;2022-08-21T04:05:27;7.70;;;1.90;;
73599;SDS011;61877;48.246;9.220;2022-08-21T04:07:53;7.67;;;1.63;;
73599;SDS011;61877;48.246;9.220;2022-08-21T04:10:19;5.00;;;1.75;;
73599;SDS011;61877;48.246;9.220;2022-08-21T04:12:46;10.07;;;1.80;;
73599;SDS011;61877;48.246;9.220;2022-08-21T04:15:12;6.83;;;1.70;;
73599;SDS011;61877;48.246;9.220;2022-08-21T04:17:37;6.68;;;1.80;;
73599;SDS011;61877;48.246;9.220;2022-08-21T04:20:03;13.23;;;2.00;;
73599;SDS011;61877;48.246;9.220;2022-08-21T04:22:29;7.50;;;1.95;;
73599;SDS011;61877;48.246;9.220;2022-08-21T04:24:54;7.07;;;2.10;;
73599;SDS011;61877;48.246;9.220;2022-08-21T04:27:20;13.50;;;2.80;;
73599;SDS011;61877;48.246;9.220;2022-08-21T04:29:46;14.53;;;2.63;;
73599;SDS011;61877;48.246;9.220;2022-08-21T04:32:12;6.93;;;2.35;;
73599;SDS011;61877;48.246;9.220;2022-08-21T04:34:37;14.60;;;2.30;;
73599;SDS011;61877;48.246;9.220;2022-08-21T04:37:03;52.42;;;3.20;;
73599;SDS011;61877;48.246;9.220;2022-08-21T04:39:28;15.57;;;2.40;;
73599;SDS011;61877;48.246;9.220;2022-08-21T04:41:54;22.30;;;2.37;;
73599;SDS011;61877;48.246;9.220;2022-08-21T04:44:19;37.35;;;2.28;;
73599;SDS011;61877;48.246;9.220;2022-08-21T04:46:46;32.90;;;2.60;;
73599;SDS011;61877;48.246;9.220;2022-08-21T04:49:11;9.30;;;1.70;;
73599;SDS011;61877;48.246;9.220;2022-08-21T04:51:37;18.20;;;2.27;;
73599;SDS011;61877;48.246;9.220;2022-08-21T04:54:05;14.60;;;2.22;;
73599;SDS011;61877;48.246;9.220;2022-08-21T04:56:35;13.83;;;2.43;;
73599;SDS011;61877;48.246;9.220;2022-08-21T04:59:05;10.02;;;1.90;;
73599;SDS011;61877;48.246;9.220;2022-08-21T05:01:36;22.83;;;2.40;;
73599;SDS011;61877;48.246;9.220;2022-08-21T05:04:04;32.03;;;2.80;;
73599;SDS011;61877;48.246;9.220;2022-08-21T05:06:33;23.63;;;2.70;;
73599;SDS011;61877;48.246;9.220;2022-08-21T05:09:02;25.40;;;2.73;;
73599;SDS011;61877;48.246;9.220;2022-08-21T05:11:29;21.20;;;2.70;;
73599;SDS011;61877;48.246;9.220;2022-08-21T05:13:55;25.20;;;2.97;;
73599;SDS011;61877;48.246;9.220;2022-08-21T05:16:20;14.23;;;2.30;;
73599;SDS011;61877;48.246;9.220;2022-08-21T05:18:46;10.13;;;2.13;;
73599;SDS011;61877;48.246;9.220;2022-08-21T05:21:12;11.93;;;2.20;;
73599;SDS011;61877;48.246;9.220;2022-08-21T05:23:38;16.07;;;2.40;;
73599;SDS011;61877;48.246;9.220;2022-08-21T05:26:03;7.93;;;1.85;;
73599;SDS011;61877;48.246;9.220;2022-08-21T05:28:29;19.97;;;2.50;;
73599;SDS011;61877;48.246;9.220;2022-08-21T05:30:54;7.03;;;1.50;;
73599;SDS011;61877;48.246;9.220;2022-08-21T05:33:20;24.15;;;2.60;;
73599;SDS011;61877;48.246;9.220;2022-08-21T05:35:49;9.10;;;1.60;;
73599;SDS011;61877;48.246;9.220;2022-08-21T05:38:16;15.82;;;2.10;;
73599;SDS011;61877;48.246;9.220;2022-08-21T05:40:41;6.70;;;2.60;;
73599;SDS011;61877;48.246;9.220;2022-08-21T05:43:07;5.60;;;1.92;;
73599;SDS011;61877;48.246;9.220;2022-08-21T05:45:32;5.07;;;1.70;;
73599;SDS011;61877;48.246;9.220;2022-08-21T05:48:04;5.20;;;1.80;;
73599;SDS011;61877;48.246;9.220;2022-08-21T05:50:30;5.30;;;1.90;;
73599;SDS011;61877;48.246;9.220;2022-08-21T05:52:56;5.07;;;1.80;;
73599;SDS011;61877;48.246;9.220;2022-08-21T05:55:23;5.40;;;2.00;;
73599;SDS011;61877;48.246;9.220;2022-08-21T05:57:48;9.27;;;2.70;;
73599;SDS011;61877;48.246;9.220;2022-08-21T06:00:14;7.68;;;2.45;;
73599;SDS011;61877;48.246;9.220;2022-08-21T06:02:40;6.33;;;2.20;;
73599;SDS011;61877;48.246;9.220;2022-08-21T06:05:06;6.88;;;2.40;;
73599;SDS011;61877;48.246;9.220;2022-08-21T06:07:32;6.50;;;2.20;;
73599;SDS011;61877;48.246;9.220;2022-08-21T06:09:58;6.00;;;2.43;;
73599;SDS011;61877;48.246;9.220;2022-08-21T06:12:24;6.93;;;2.17;;
73599;SDS011;61877;48.246;9.220;2022-08-21T06:14:50;6.03;;;2.35;;
73599;SDS011;61877;48.246;9.220;2022-08-21T06:17:15;6.17;;;2.10;;
73599;SDS011;61877;48.246;9.220;2022-08-21T06:19:41;6.27;;;2.30;;
73599;SDS011;61877;48.246;9.220;2022-08-21T06:22:06;6.33;;;2.30;;
73599;SDS011;61877;48.246;9.220;2022-08-21T06:24:32;5.90;;;2.17;;
73599;SDS011;61877;48.246;9.220;2022-08-21T06:27:03;5.78;;;2.05;;
73599;SDS011;61877;48.246;9.220;2022-08-21T06:29:33;5.95;;;2.00;;
73599;SDS011;61877;48.246;9.220;2022-08-21T06:32:00;5.80;;;2.10;;
73599;SDS011;61877;48.246;9.220;2022-08-21T06:34:26;6.03;;;2.30;;
73599;SDS011;61877;48.246;9.220;2022-08-21T06:36:55;5.67;;;1.80;;
73599;SDS011;61877;48.246;9.220;2022-08-21T06:39:20;5.50;;;2.20;;
73599;SDS011;61877;48.246;9.220;2022-08-21T06:41:46;6.27;;;2.27;;
73599;SDS011;61877;48.246;9.220;2022-08-21T06:44:12;6.27;;;2.40;;
73599;SDS011;61877;48.246;9.220;2022-08-21T06:46:41;6.05;;;2.20;;
73599;SDS011;61877;48.246;9.220;2022-08-21T06:49:07;7.35;;;2.15;;
73599;SDS011;61877;48.246;9.220;2022-08-21T06:51:32;6.30;;;2.33;;
73599;SDS011;61877;48.246;9.220;2022-08-21T06:53:58;6.20;;;2.50;;
73599;SDS011;61877;48.246;9.220;2022-08-21T06:56:23;7.10;;;2.50;;
73599;SDS011;61877;48.246;9.220;2022-08-21T06:58:48;6.93;;;2.60;;
73599;SDS011;61877;48.246;9.220;2022-08-21T07:01:14;5.80;;;2.27;;
73599;SDS011;61877;48.246;9.220;2022-08-21T07:03:41;7.07;;;2.60;;
73599;SDS011;61877;48.246;9.220;2022-08-21T07:06:09;5.73;;;2.27;;
73599;SDS011;61877;48.246;9.220;2022-08-21T07:08:35;6.85;;;2.47;;
73599;SDS011;61877;48.246;9.220;2022-08-21T07:11:03;8.02;;;2.72;;
73599;SDS011;61877;48.246;9.220;2022-08-21T07:13:32;6.35;;;2.72;;
73599;SDS011;61877;48.246;9.220;2022-08-21T07:15:57;7.27;;;2.93;;
73599;SDS011;61877;48.246;9.220;2022-08-21T07:18:22;6.87;;;2.43;;
73599;SDS011;61877;48.246;9.220;2022-08-21T07:20:49;6.75;;;3.10;;
73599;SDS011;61877;48.246;9.220;2022-08-21T07:23:23;6.67;;;2.67;;
73599;SDS011;61877;48.246;9.220;2022-08-21T07:25:52;7.13;;;2.60;;
73599;SDS011;61877;48.246;9.220;2022-08-21T07:28:17;7.33;;;2.70;;
73599;SDS011;61877;48.246;9.220;2022-08-21T07:30:43;7.57;;;2.83;;
73599;SDS011;61877;48.246;9.220;2022-08-21T07:33:09;8.90;;;4.13;;
73599;SDS011;61877;48.246;9.220;2022-08-21T07:35:35;8.53;;;3.40;;
73599;SDS011;61877;48.246;9.220;2022-08-21T07:38:02;6.47;;;2.60;;
73599;SDS011;61877;48.246;9.220;2022-08-21T07:40:27;7.77;;;3.00;;
73599;SDS011;61877;48.246;9.220;2022-08-21T07:42:53;7.53;;;2.90;;
73599;SDS011;61877;48.246;9.220;2022-08-21T07:45:19;9.30;;;4.20;;
73599;SDS011;61877;48.246;9.220;2022-08-21T07:47:46;9.32;;;5.18;;
73599;SDS011;61877;48.246;9.220;2022-08-21T07:50:12;8.10;;;3.97;;
73599;SDS011;61877;48.246;9.220;2022-08-21T07:52:38;7.65;;;3.42;;
73599;SDS011;61877;48.246;9.220;2022-08-21T07:55:06;8.33;;;3.20;;
73599;SDS011;61877;48.246;9.220;2022-08-21T07:57:33;7.95;;;3.25;;
73599;SDS011;61877;48.246;9.220;2022-08-21T07:59:58;8.60;;;3.50;;
73599;SDS011;61877;48.246;9.220;2022-08-21T08:02:24;8.25;;;3.58;;
73599;SDS011;61877;48.246;9.220;2022-08-21T08:04:50;8.25;;;3.40;;
73599;SDS011;61877;48.246;9.220;2022-08-21T08:07:15;7.67;;;3.20;;
73599;SDS011;61877;48.246;9.220;2022-08-21T08:09:41;7.30;;;3.13;;
73599;SDS011;61877;48.246;9.220;2022-08-21T08:12:08;7.35;;;3.20;;
73599;SDS011;61877;48.246;9.220;2022-08-21T08:14:33;7.93;;;3.30;;
73599;SDS011;61877;48.246;9.220;2022-08-21T08:16:59;8.00;;;3.10;;
73599;SDS011;61877;48.246;9.220;2022-08-21T08:19:24;9.43;;;3.50;;
73599;SDS011;61877;48.246;9.220;2022-08-21T08:21:50;7.67;;;3.20;;
73599;SDS011;61877;48.246;9.220;2022-08-21T08:24:15;8.25;;;3.15;;
73599;SDS011;61877;48.246;9.220;2022-08-21T08:26:41;7.80;;;3.37;;
73599;SDS011;61877;48.246;9.220;2022-08-21T08:29:07;7.97;;;3.20;;
73599;SDS011;61877;48.246;9.220;2022-08-21T08:31:33;8.20;;;3.13;;
73599;SDS011;61877;48.246;9.220;2022-08-21T08:33:58;8.20;;;3.07;;
73599;SDS011;61877;48.246;9.220;2022-08-21T08:36:31;7.30;;;2.90;;
73599;SDS011;61877;48.246;9.220;2022-08-21T08:38:58;7.63;;;3.00;;
73599;SDS011;61877;48.246;9.220;2022-08-21T08:41:23;7.73;;;2.90;;
73599;SDS011;61877;48.246;9.220;2022-08-21T08:43:49;8.23;;;3.10;;
73599;SDS011;61877;48.246;9.220;2022-08-21T08:46:19;7.80;;;3.30;;
73599;SDS011;61877;48.246;9.220;2022-08-21T08:48:58;9.63;;;3.00;;
73599;SDS011;61877;48.246;9.220;2022-08-21T08:51:29;9.32;;;3.85;;
73599;SDS011;61877;48.246;9.220;2022-08-21T08:54:04;9.13;;;3.30;;
73599;SDS011;61877;48.246;9.220;2022-08-21T08:56:34;7.90;;;3.20;;
73599;SDS011;61877;48.246;9.220;2022-08-21T08:59:02;8.45;;;3.22;;
73599;SDS011;61877;48.246;9.220;2022-08-21T09:01:34;7.70;;;3.10;;
73599;SDS011;61877;48.246;9.220;2022-08-21T09:04:00;9.48;;;3.35;;
73599;SDS011;61877;48.246;9.220;2022-08-21T09:06:28;8.63;;;3.20;;
73599;SDS011;61877;48.246;9.220;2022-08-21T09:09:08;8.25;;;3.05;;
73599;SDS011;61877;48.246;9.220;2022-08-21T09:11:48;8.15;;;3.40;;
73599;SDS011;61877;48.246;9.220;2022-08-21T09:17:23;7.28;;;3.17;;
73599;SDS011;61877;48.246;9.220;2022-08-21T09:20:19;7.97;;;3.00;;
73599;SDS011;61877;48.246;9.220;2022-08-21T09:22:57;7.25;;;3.05;;
73599;SDS011;61877;48.246;9.220;2022-08-21T09:25:30;8.32;;;3.30;;
73599;SDS011;61877;48.246;9.220;2022-08-21T09:27:58;9.95;;;3.20;;
73599;SDS011;61877;48.246;9.220;2022-08-21T09:30:28;7.37;;;2.97;;
73599;SDS011;61877;48.246;9.220;2022-08-21T09:32:57;8.23;;;3.03;;
73599;SDS011;61877;48.246;9.220;2022-08-21T09:35:23;8.65;;;3.03;;
73599;SDS011;61877;48.246;9.220;2022-08-21T09:37:51;7.83;;;2.90;;
73599;SDS011;61877;48.246;9.220;2022-08-21T09:40:30;8.10;;;2.92;;
73599;SDS011;61877;48.246;9.220;2022-08-21T09:42:59;7.78;;;2.90;;
73599;SDS011;61877;48.246;9.220;2022-08-21T09:45:30;7.55;;;2.60;;
73599;SDS011;61877;48.246;9.220;2022-08-21T09:48:08;8.23;;;2.90;;
73599;SDS011;61877;48.246;9.220;2022-08-21T09:50:34;8.43;;;2.90;;
73599;SDS011;61877;48.246;9.220;2022-08-21T09:53:00;6.95;;;2.90;;
73599;SDS011;61877;48.246;9.220;2022-08-21T09:55:30;9.17;;;2.83;;
73599;SDS011;61877;48.246;9.220;2022-08-21T09:57:59;7.07;;;2.90;;
73599;SDS011;61877;48.246;9.220;2022-08-21T10:00:26;8.07;;;2.80;;
73599;SDS011;61877;48.246;9.220;2022-08-21T10:02:54;7.57;;;3.17;;
73599;SDS011;61877;48.246;9.220;2022-08-21T10:05:24;7.30;;;2.50;;
73599;SDS011;61877;48.246;9.220;2022-08-21T10:07:51;5.97;;;2.35;;
73599;SDS011;61877;48.246;9.220;2022-08-21T10:10:17;7.13;;;2.75;;
73599;SDS011;61877;48.246;9.220;2022-08-21T10:12:45;7.43;;;2.67;;
73599;SDS011;61877;48.246;9.220;2022-08-21T10:15:21;7.18;;;3.03;;
73599;SDS011;61877;48.246;9.220;2022-08-21T10:17:55;7.82;;;2.80;;
73599;SDS011;61877;48.246;9.220;2022-08-21T10:20:31;7.15;;;2.60;;
73599;SDS011;61877;48.246;9.220;2022-08-21T10:23:20;8.20;;;2.83;;
73599;SDS011;61877;48.246;9.220;2022-08-21T10:25:56;7.63;;;3.00;;
73599;SDS011;61877;48.246;9.220;2022-08-21T10:28:28;7.00;;;2.70;;
73599;SDS011;61877;48.246;9.220;2022-08-21T10:31:00;6.65;;;2.85;;
73599;SDS011;61877;48.246;9.220;2022-08-21T10:33:37;7.38;;;2.90;;
73599;SDS011;61877;48.246;9.220;2022-08-21T10:36:13;6.90;;;2.75;;
73599;SDS011;61877;48.246;9.220;2022-08-21T10:38:54;7.13;;;2.90;;
73599;SDS011;61877;48.246;9.220;2022-08-21T10:41:28;7.40;;;3.20;;
73599;SDS011;61877;48.246;9.220;2022-08-21T10:44:10;7.80;;;3.28;;
73599;SDS011;61877;48.246;9.220;2022-08-21T10:46:45;7.35;;;2.90;;
73599;SDS011;61877;48.246;9.220;2022-08-21T10:49:18;7.18;;;2.60;;
73599;SDS011;61877;48.246;9.220;2022-08-21T10:51:54;8.60;;;2.80;;
73599;SDS011;61877;48.246;9.220;2022-08-21T10:54:28;6.72;;;2.65;;
73599;SDS011;61877;48.246;9.220;2022-08-21T10:57:02;8.15;;;2.72;;
73599;SDS011;61877;48.246;9.220;2022-08-21T10:59:33;7.00;;;2.72;;
73599;SDS011;61877;48.246;9.220;2022-08-21T11:02:04;7.88;;;2.85;;
73599;SDS011;61877;48.246;9.220;2022-08-21T11:04:40;6.57;;;2.90;;
73599;SDS011;61877;48.246;9.220;2022-08-21T11:07:18;7.78;;;2.60;;
73599;SDS011;61877;48.246;9.220;2022-08-21T11:09:47;6.53;;;2.70;;
73599;SDS011;61877;48.246;9.220;2022-08-21T11:12:17;7.60;;;2.88;;
73599;SDS011;61877;48.246;9.220;2022-08-21T11:14:49;7.68;;;3.30;;
73599;SDS011;61877;48.246;9.220;2022-08-21T11:17:27;8.00;;;2.90;;
73599;SDS011;61877;48.246;9.220;2022-08-21T11:19:59;9.02;;;2.65;;
73599;SDS011;61877;48.246;9.220;2022-08-21T11:22:39;8.38;;;2.95;;
73599;SDS011;61877;48.246;9.220;2022-08-21T11:25:11;7.47;;;3.20;;
73599;SDS011;61877;48.246;9.220;2022-08-21T11:28:00;7.15;;;2.80;;
73599;SDS011;61877;48.246;9.220;2022-08-21T11:30:43;7.60;;;2.83;;
73599;SDS011;61877;48.246;9.220;2022-08-21T11:33:26;7.93;;;3.00;;
73599;SDS011;61877;48.246;9.220;2022-08-21T11:36:07;7.05;;;2.83;;
73599;SDS011;61877;48.246;9.220;2022-08-21T11:38:42;6.57;;;2.80;;
73599;SDS011;61877;48.246;9.220;2022-08-21T11:41:21;7.50;;;2.88;;
73599;SDS011;61877;48.246;9.220;2022-08-21T11:43:53;7.10;;;2.93;;
73599;SDS011;61877;48.246;9.220;2022-08-21T11:46:29;7.68;;;3.10;;
73599;SDS011;61877;48.246;9.220;2022-08-21T11:49:09;6.82;;;3.17;;
73599;SDS011;61877;48.246;9.220;2022-08-21T11:51:50;6.57;;;2.88;;
73599;SDS011;61877;48.246;9.220;2022-08-21T11:54:26;7.93;;;3.00;;
73599;SDS011;61877;48.246;9.220;2022-08-21T11:56:57;7.20;;;2.80;;
73599;SDS011;61877;48.246;9.220;2022-08-21T11:59:30;7.20;;;2.90;;
73599;SDS011;61877;48.246;9.220;2022-08-21T12:02:00;6.30;;;3.08;;
73599;SDS011;61877;48.246;9.220;2022-08-21T12:04:26;6.60;;;2.72;;
73599;SDS011;61877;48.246;9.220;2022-08-21T12:06:56;7.57;;;2.72;;
73599;SDS011;61877;48.246;9.220;2022-08-21T12:09:33;6.90;;;2.50;;
73599;SDS011;61877;48.246;9.220;2022-08-21T12:12:01;6.57;;;2.92;;
73599;SDS011;61877;48.246;9.220;2022-08-21T12:14:36;6.97;;;2.92;;
73599;SDS011;61877;48.246;9.220;2022-08-21T12:17:04;8.23;;;3.08;;
73599;SDS011;61877;48.246;9.220;2022-08-21T12:19:31;7.33;;;2.87;;
73599;SDS011;61877;48.246;9.220;2022-08-21T12:21:58;7.13;;;2.88;;
73599;SDS011;61877;48.246;9.220;2022-08-21T12:24:37;8.73;;;2.97;;
73599;SDS011;61877;48.246;9.220;2022-08-21T12:27:22;6.97;;;3.20;;
73599;SDS011;61877;48.246;9.220;2022-08-21T12:29:52;6.85;;;3.00;;
73599;SDS011;61877;48.246;9.220;2022-08-21T12:32:23;8.27;;;3.10;;
73599;SDS011;61877;48.246;9.220;2022-08-21T12:34:51;6.82;;;2.92;;
73599;SDS011;61877;48.246;9.220;2022-08-21T12:37:21;6.75;;;3.00;;
73599;SDS011;61877;48.246;9.220;2022-08-21T12:39:54;7.95;;;3.13;;
73599;SDS011;61877;48.246;9.220;2022-08-21T12:42:24;7.65;;;3.40;;
73599;SDS011;61877;48.246;9.220;2022-08-21T12:45:00;7.13;;;3.20;;
73599;SDS011;61877;48.246;9.220;2022-08-21T12:47:30;7.57;;;3.00;;
73599;SDS011;61877;48.246;9.220;2022-08-21T12:50:00;8.80;;;3.10;;
73599;SDS011;61877;48.246;9.220;2022-08-21T12:52:30;7.30;;;2.85;;
73599;SDS011;61877;48.246;9.220;2022-08-21T12:55:00;6.93;;;2.80;;
73599;SDS011;61877;48.246;9.220;2022-08-21T12:57:27;6.50;;;3.00;;
73599;SDS011;61877;48.246;9.220;2022-08-21T12:59:55;6.82;;;2.72;;
73599;SDS011;61877;48.246;9.220;2022-08-21T13:02:22;8.13;;;2.80;;
73599;SDS011;61877;48.246;9.220;2022-08-21T13:04:50;7.47;;;2.90;;
73599;SDS011;61877;48.246;9.220;2022-08-21T13:07:19;7.68;;;2.80;;
73599;SDS011;61877;48.246;9.220;2022-08-21T13:09:51;6.53;;;2.70;;
73599;SDS011;61877;48.246;9.220;2022-08-21T13:12:19;7.75;;;2.92;;
73599;SDS011;61877;48.246;9.220;2022-08-21T13:14:48;7.93;;;2.70;;
73599;SDS011;61877;48.246;9.220;2022-08-21T13:17:17;7.30;;;2.97;;
73599;SDS011;61877;48.246;9.220;2022-08-21T13:19:52;6.85;;;2.80;;
73599;SDS011;61877;48.246;9.220;2022-08-21T13:22:19;6.70;;;3.07;;
73599;SDS011;61877;48.246;9.220;2022-08-21T13:24:46;6.78;;;2.83;;
73599;SDS011;61877;48.246;9.220;2022-08-21T13:27:21;8.17;;;2.70;;
73599;SDS011;61877;48.246;9.220;2022-08-21T13:29:49;6.22;;;2.60;;
73599;SDS011;61877;48.246;9.220;2022-08-21T13:32:27;6.97;;;2.88;;
73599;SDS011;61877;48.246;9.220;2022-08-21T13:34:58;7.50;;;2.63;;
73599;SDS011;61877;48.246;9.220;2022-08-21T13:37:31;6.25;;;2.70;;
73599;SDS011;61877;48.246;9.220;2022-08-21T13:39:57;6.63;;;2.90;;
73599;SDS011;61877;48.246;9.220;2022-08-21T13:42:24;9.07;;;3.17;;
73599;SDS011;61877;48.246;9.220;2022-08-21T13:44:50;6.70;;;2.90;;
73599;SDS011;61877;48.246;9.220;2022-08-21T13:47:17;7.50;;;3.10;;
73599;SDS011;61877;48.246;9.220;2022-08-21T13:49:44;6.73;;;2.60;;
73599;SDS011;61877;48.246;9.220;2022-08-21T13:52:15;7.10;;;2.90;;
73599;SDS011;61877;48.246;9.220;2022-08-21T13:54:42;6.65;;;2.83;;
73599;SDS011;61877;48.246;9.220;2022-08-21T13:57:15;6.57;;;2.67;;
73599;SDS011;61877;48.246;9.220;2022-08-21T13:59:43;6.75;;;2.70;;
73599;SDS011;61877;48.246;9.220;2022-08-21T14:02:12;7.35;;;3.00;;
73599;SDS011;61877;48.246;9.220;2022-08-21T14:04:42;7.05;;;3.00;;
73599;SDS011;61877;48.246;9.220;2022-08-21T14:07:15;6.78;;;2.90;;
73599;SDS011;61877;48.246;9.220;2022-08-21T14:09:43;6.63;;;3.00;;
73599;SDS011;61877;48.246;9.220;2022-08-21T14:12:11;6.63;;;3.08;;
73599;SDS011;61877;48.246;9.220;2022-08-21T14:14:40;7.07;;;3.30;;
73599;SDS011;61877;48.246;9.220;2022-08-21T14:17:09;6.93;;;3.10;;
73599;SDS011;61877;48.246;9.220;2022-08-21T14:19:38;6.57;;;3.30;;
73599;SDS011;61877;48.246;9.220;2022-08-21T14:22:21;7.53;;;3.10;;
73599;SDS011;61877;48.246;9.220;2022-08-21T14:24:58;7.68;;;3.60;;
73599;SDS011;61877;48.246;9.220;2022-08-21T14:27:25;6.75;;;3.30;;
73599;SDS011;61877;48.246;9.220;2022-08-21T14:29:50;7.57;;;3.10;;
73599;SDS011;61877;48.246;9.220;2022-08-21T14:32:26;6.60;;;3.10;;
73599;SDS011;61877;48.246;9.220;2022-08-21T14:34:53;6.40;;;3.20;;
73599;SDS011;61877;48.246;9.220;2022-08-21T14:37:18;6.97;;;3.50;;
73599;SDS011;61877;48.246;9.220;2022-08-21T14:39:44;7.07;;;3.30;;
73599;SDS011;61877;48.246;9.220;2022-08-21T14:42:09;6.70;;;3.58;;
73599;SDS011;61877;48.246;9.220;2022-08-21T14:44:35;6.87;;;3.20;;
73599;SDS011;61877;48.246;9.220;2022-08-21T14:47:00;6.93;;;3.73;;
73599;SDS011;61877;48.246;9.220;2022-08-21T14:49:30;6.65;;;3.45;;
73599;SDS011;61877;48.246;9.220;2022-08-21T14:51:56;8.23;;;3.75;;
73599;SDS011;61877;48.246;9.220;2022-08-21T14:54:31;7.07;;;3.27;;